sensor_id;sensor_type;location;lat;lon;timestamp;P1;durP1;ratioP1;P2;durP2;ratioP2
24325;SDS011;12448;45.532;5.290;2022-09-16T00:01:34;4.03;;;1.60;;
24325;SDS011;12448;45.532;5.290;2022-09-16T00:04:02;2.78;;;1.80;;
24325;SDS011;12448;45.532;5.290;2022-09-16T00:06:31;5.80;;;1.80;;
24325;SDS011;12448;45.532;5.290;2022-09-16T00:09:39;1.95;;;1.85;;
24325;SDS011;12448;45.532;5.290;2022-09-16T00:12:05;3.28;;;2.00;;
24325;SDS011;12448;45.532;5.290;2022-09-16T00:14:31;3.28;;;1.63;;
24325;SDS011;12448;45.532;5.290;2022-09-16T00:16:56;4.40;;;1.50;;
24325;SDS011;12448;45.532;5.290;2022-09-16T00:19:22;2.20;;;1.60;;
24325;SDS011;12448;45.532;5.290;2022-09-16T00:21:57;3.00;;;1.38;;
24325;SDS011;12448;45.532;5.290;2022-09-16T00:24:28;4.13;;;1.50;;
24325;SDS011;12448;45.532;5.290;2022-09-16T00:27:17;3.30;;;1.27;;
24325;SDS011;12448;45.532;5.290;2022-09-16T00:29:46;2.67;;;1.63;;
24325;SDS011;12448;45.532;5.290;2022-09-16T00:42:16;3.67;;;3.23;;
24325;SDS011;12448;45.532;5.290;2022-09-16T00:44:59;6.47;;;3.90;;
24325;SDS011;12448;45.532;5.290;2022-09-16T00:47:35;5.35;;;4.20;;
24325;SDS011;12448;45.532;5.290;2022-09-16T00:53:06;9.07;;;5.00;;
24325;SDS011;12448;45.532;5.290;2022-09-16T00:55:37;8.80;;;4.45;;
24325;SDS011;12448;45.532;5.290;2022-09-16T00:58:11;5.85;;;4.10;;
24325;SDS011;12448;45.532;5.290;2022-09-16T01:14:06;3.20;;;2.90;;
24325;SDS011;12448;45.532;5.290;2022-09-16T01:25:52;3.35;;;1.77;;
24325;SDS011;12448;45.532;5.290;2022-09-16T01:42:37;2.78;;;1.70;;
24325;SDS011;12448;45.532;5.290;2022-09-16T01:51:55;4.55;;;3.20;;
24325;SDS011;12448;45.532;5.290;2022-09-16T02:04:36;6.00;;;5.40;;
24325;SDS011;12448;45.532;5.290;2022-09-16T02:07:13;7.93;;;4.70;;
24325;SDS011;12448;45.532;5.290;2022-09-16T02:10:00;5.07;;;4.57;;
24325;SDS011;12448;45.532;5.290;2022-09-16T02:12:33;12.50;;;6.97;;
24325;SDS011;12448;45.532;5.290;2022-09-16T02:15:07;9.65;;;8.65;;
24325;SDS011;12448;45.532;5.290;2022-09-16T02:17:39;12.88;;;9.32;;
24325;SDS011;12448;45.532;5.290;2022-09-16T02:20:09;12.35;;;9.07;;
24325;SDS011;12448;45.532;5.290;2022-09-16T02:22:46;10.15;;;9.10;;
24325;SDS011;12448;45.532;5.290;2022-09-16T02:25:16;10.77;;;9.68;;
24325;SDS011;12448;45.532;5.290;2022-09-16T02:27:44;10.38;;;9.15;;
24325;SDS011;12448;45.532;5.290;2022-09-16T02:30:15;11.77;;;10.25;;
24325;SDS011;12448;45.532;5.290;2022-09-16T02:32:47;11.80;;;10.60;;
24325;SDS011;12448;45.532;5.290;2022-09-16T02:35:18;14.35;;;11.35;;
24325;SDS011;12448;45.532;5.290;2022-09-16T02:37:48;14.05;;;10.68;;
24325;SDS011;12448;45.532;5.290;2022-09-16T02:40:54;12.57;;;10.95;;
24325;SDS011;12448;45.532;5.290;2022-09-16T02:43:22;12.45;;;10.40;;
24325;SDS011;12448;45.532;5.290;2022-09-16T03:00:12;10.65;;;9.25;;
24325;SDS011;12448;45.532;5.290;2022-09-16T03:05:28;14.00;;;11.32;;
24325;SDS011;12448;45.532;5.290;2022-09-16T03:07:54;12.45;;;11.15;;
24325;SDS011;12448;45.532;5.290;2022-09-16T03:10:21;13.05;;;10.98;;
24325;SDS011;12448;45.532;5.290;2022-09-16T03:18:36;24.05;;;15.05;;
24325;SDS011;12448;45.532;5.290;2022-09-16T03:21:56;18.13;;;14.50;;
24325;SDS011;12448;45.532;5.290;2022-09-16T03:31:05;16.70;;;14.20;;
24325;SDS011;12448;45.532;5.290;2022-09-16T03:33:50;18.27;;;16.08;;
24325;SDS011;12448;45.532;5.290;2022-09-16T03:36:32;16.90;;;15.07;;
24325;SDS011;12448;45.532;5.290;2022-09-16T03:39:07;17.35;;;14.75;;
24325;SDS011;12448;45.532;5.290;2022-09-16T03:41:34;24.90;;;15.10;;
24325;SDS011;12448;45.532;5.290;2022-09-16T03:44:00;17.98;;;14.85;;
24325;SDS011;12448;45.532;5.290;2022-09-16T03:46:26;19.10;;;15.98;;
24325;SDS011;12448;45.532;5.290;2022-09-16T03:48:53;18.50;;;15.70;;
24325;SDS011;12448;45.532;5.290;2022-09-16T03:51:20;20.73;;;17.10;;
24325;SDS011;12448;45.532;5.290;2022-09-16T03:53:46;18.52;;;15.70;;
24325;SDS011;12448;45.532;5.290;2022-09-16T03:56:11;19.17;;;14.82;;
24325;SDS011;12448;45.532;5.290;2022-09-16T03:58:37;24.58;;;15.88;;
24325;SDS011;12448;45.532;5.290;2022-09-16T04:01:02;16.42;;;14.57;;
24325;SDS011;12448;45.532;5.290;2022-09-16T04:03:28;19.02;;;14.20;;
24325;SDS011;12448;45.532;5.290;2022-09-16T04:05:55;16.13;;;14.43;;
24325;SDS011;12448;45.532;5.290;2022-09-16T04:08:21;17.17;;;13.75;;
24325;SDS011;12448;45.532;5.290;2022-09-16T04:11:00;18.30;;;14.00;;
24325;SDS011;12448;45.532;5.290;2022-09-16T04:13:30;16.58;;;13.73;;
24325;SDS011;12448;45.532;5.290;2022-09-16T04:16:00;15.07;;;12.82;;
24325;SDS011;12448;45.532;5.290;2022-09-16T04:18:26;16.33;;;13.40;;
24325;SDS011;12448;45.532;5.290;2022-09-16T04:20:56;15.68;;;13.00;;
24325;SDS011;12448;45.532;5.290;2022-09-16T04:23:25;15.82;;;12.90;;
24325;SDS011;12448;45.532;5.290;2022-09-16T04:25:56;14.25;;;12.75;;
24325;SDS011;12448;45.532;5.290;2022-09-16T04:28:23;15.00;;;11.40;;
24325;SDS011;12448;45.532;5.290;2022-09-16T04:30:49;12.35;;;11.15;;
24325;SDS011;12448;45.532;5.290;2022-09-16T04:33:15;15.52;;;10.32;;
24325;SDS011;12448;45.532;5.290;2022-09-16T04:35:41;12.15;;;10.88;;
24325;SDS011;12448;45.532;5.290;2022-09-16T04:38:07;13.05;;;10.55;;
24325;SDS011;12448;45.532;5.290;2022-09-16T04:40:32;11.68;;;10.48;;
24325;SDS011;12448;45.532;5.290;2022-09-16T04:42:58;13.82;;;11.82;;
24325;SDS011;12448;45.532;5.290;2022-09-16T04:45:24;12.68;;;11.40;;
24325;SDS011;12448;45.532;5.290;2022-09-16T04:47:56;15.98;;;10.93;;
24325;SDS011;12448;45.532;5.290;2022-09-16T04:52:48;16.20;;;11.75;;
24325;SDS011;12448;45.532;5.290;2022-09-16T04:55:15;16.83;;;11.93;;
24325;SDS011;12448;45.532;5.290;2022-09-16T04:57:41;12.85;;;11.48;;
24325;SDS011;12448;45.532;5.290;2022-09-16T05:00:07;15.00;;;11.57;;
24325;SDS011;12448;45.532;5.290;2022-09-16T05:02:34;12.70;;;11.35;;
24325;SDS011;12448;45.532;5.290;2022-09-16T05:04:59;14.23;;;10.75;;
24325;SDS011;12448;45.532;5.290;2022-09-16T05:07:26;15.38;;;11.18;;
24325;SDS011;12448;45.532;5.290;2022-09-16T05:09:53;12.52;;;10.10;;
24325;SDS011;12448;45.532;5.290;2022-09-16T05:12:19;12.05;;;10.30;;
24325;SDS011;12448;45.532;5.290;2022-09-16T05:14:44;11.18;;;9.82;;
24325;SDS011;12448;45.532;5.290;2022-09-16T05:17:10;15.55;;;9.75;;
24325;SDS011;12448;45.532;5.290;2022-09-16T05:19:35;12.18;;;10.23;;
24325;SDS011;12448;45.532;5.290;2022-09-16T05:22:01;12.93;;;9.80;;
24325;SDS011;12448;45.532;5.290;2022-09-16T05:24:32;14.57;;;11.18;;
24325;SDS011;12448;45.532;5.290;2022-09-16T05:27:00;13.30;;;10.25;;
24325;SDS011;12448;45.532;5.290;2022-09-16T05:29:26;15.38;;;11.93;;
24325;SDS011;12448;45.532;5.290;2022-09-16T05:31:51;12.70;;;11.07;;
24325;SDS011;12448;45.532;5.290;2022-09-16T05:34:18;17.67;;;11.63;;
24325;SDS011;12448;45.532;5.290;2022-09-16T05:36:46;13.98;;;10.30;;
24325;SDS011;12448;45.532;5.290;2022-09-16T05:39:16;11.90;;;10.70;;
24325;SDS011;12448;45.532;5.290;2022-09-16T05:41:45;13.73;;;11.32;;
24325;SDS011;12448;45.532;5.290;2022-09-16T05:44:11;14.90;;;12.13;;
24325;SDS011;12448;45.532;5.290;2022-09-16T05:49:34;16.88;;;10.70;;
24325;SDS011;12448;45.532;5.290;2022-09-16T05:52:01;16.13;;;10.27;;
24325;SDS011;12448;45.532;5.290;2022-09-16T05:54:26;13.18;;;10.23;;
24325;SDS011;12448;45.532;5.290;2022-09-16T05:56:52;13.73;;;11.20;;
24325;SDS011;12448;45.532;5.290;2022-09-16T05:59:18;13.05;;;10.70;;
24325;SDS011;12448;45.532;5.290;2022-09-16T06:01:44;13.82;;;10.65;;
24325;SDS011;12448;45.532;5.290;2022-09-16T06:04:10;15.13;;;10.77;;
24325;SDS011;12448;45.532;5.290;2022-09-16T06:06:41;13.98;;;9.93;;
24325;SDS011;12448;45.532;5.290;2022-09-16T06:09:09;13.77;;;10.50;;
24325;SDS011;12448;45.532;5.290;2022-09-16T06:11:54;20.60;;;10.90;;
24325;SDS011;12448;45.532;5.290;2022-09-16T06:14:26;14.02;;;11.02;;
24325;SDS011;12448;45.532;5.290;2022-09-16T06:17:10;20.50;;;12.05;;
24325;SDS011;12448;45.532;5.290;2022-09-16T06:19:35;19.65;;;11.63;;
24325;SDS011;12448;45.532;5.290;2022-09-16T06:22:01;20.05;;;13.05;;
24325;SDS011;12448;45.532;5.290;2022-09-16T06:24:26;14.23;;;12.40;;
24325;SDS011;12448;45.532;5.290;2022-09-16T06:27:01;16.75;;;13.10;;
24325;SDS011;12448;45.532;5.290;2022-09-16T06:29:27;16.20;;;11.43;;
24325;SDS011;12448;45.532;5.290;2022-09-16T06:31:52;12.43;;;10.82;;
24325;SDS011;12448;45.532;5.290;2022-09-16T06:34:18;13.63;;;10.18;;
24325;SDS011;12448;45.532;5.290;2022-09-16T06:36:47;15.13;;;11.82;;
24325;SDS011;12448;45.532;5.290;2022-09-16T06:39:16;14.68;;;10.25;;
24325;SDS011;12448;45.532;5.290;2022-09-16T06:41:46;14.00;;;10.23;;
24325;SDS011;12448;45.532;5.290;2022-09-16T06:44:15;13.70;;;10.60;;
24325;SDS011;12448;45.532;5.290;2022-09-16T06:46:41;13.65;;;9.95;;
24325;SDS011;12448;45.532;5.290;2022-09-16T06:49:10;12.93;;;9.50;;
24325;SDS011;12448;45.532;5.290;2022-09-16T06:51:36;13.25;;;9.63;;
24325;SDS011;12448;45.532;5.290;2022-09-16T06:54:06;14.18;;;10.27;;
24325;SDS011;12448;45.532;5.290;2022-09-16T06:56:54;16.60;;;10.35;;
24325;SDS011;12448;45.532;5.290;2022-09-16T06:59:20;12.02;;;10.02;;
24325;SDS011;12448;45.532;5.290;2022-09-16T07:01:48;12.50;;;9.75;;
24325;SDS011;12448;45.532;5.290;2022-09-16T07:04:18;14.95;;;9.43;;
24325;SDS011;12448;45.532;5.290;2022-09-16T07:06:49;14.55;;;10.00;;
24325;SDS011;12448;45.532;5.290;2022-09-16T07:09:15;14.70;;;9.82;;
24325;SDS011;12448;45.532;5.290;2022-09-16T07:11:41;10.55;;;8.77;;
24325;SDS011;12448;45.532;5.290;2022-09-16T07:14:07;11.07;;;9.18;;
24325;SDS011;12448;45.532;5.290;2022-09-16T07:16:33;15.30;;;8.88;;
24325;SDS011;12448;45.532;5.290;2022-09-16T07:18:59;12.32;;;9.15;;
24325;SDS011;12448;45.532;5.290;2022-09-16T07:21:34;11.10;;;9.27;;
24325;SDS011;12448;45.532;5.290;2022-09-16T07:24:19;10.25;;;8.63;;
24325;SDS011;12448;45.532;5.290;2022-09-16T07:26:44;11.10;;;8.73;;
24325;SDS011;12448;45.532;5.290;2022-09-16T07:29:13;9.48;;;8.20;;
24325;SDS011;12448;45.532;5.290;2022-09-16T07:31:48;10.50;;;9.00;;
24325;SDS011;12448;45.532;5.290;2022-09-16T07:34:14;9.38;;;8.32;;
24325;SDS011;12448;45.532;5.290;2022-09-16T07:36:41;11.77;;;8.25;;
24325;SDS011;12448;45.532;5.290;2022-09-16T07:39:09;12.88;;;7.68;;
24325;SDS011;12448;45.532;5.290;2022-09-16T07:41:38;10.38;;;7.90;;
24325;SDS011;12448;45.532;5.290;2022-09-16T07:44:06;9.80;;;7.50;;
24325;SDS011;12448;45.532;5.290;2022-09-16T07:46:34;12.80;;;7.57;;
24325;SDS011;12448;45.532;5.290;2022-09-16T07:49:01;9.05;;;7.25;;
24325;SDS011;12448;45.532;5.290;2022-09-16T07:54:33;13.27;;;7.15;;
24325;SDS011;12448;45.532;5.290;2022-09-16T07:56:59;10.82;;;6.45;;
24325;SDS011;12448;45.532;5.290;2022-09-16T07:59:28;11.27;;;7.05;;
24325;SDS011;12448;45.532;5.290;2022-09-16T08:01:53;9.05;;;7.55;;
24325;SDS011;12448;45.532;5.290;2022-09-16T08:04:31;9.05;;;7.32;;
24325;SDS011;12448;45.532;5.290;2022-09-16T08:07:02;16.10;;;7.55;;
24325;SDS011;12448;45.532;5.290;2022-09-16T08:09:28;10.68;;;7.85;;
24325;SDS011;12448;45.532;5.290;2022-09-16T08:11:54;14.98;;;8.82;;
24325;SDS011;12448;45.532;5.290;2022-09-16T08:14:57;12.48;;;8.43;;
24325;SDS011;12448;45.532;5.290;2022-09-16T08:17:24;10.23;;;8.15;;
24325;SDS011;12448;45.532;5.290;2022-09-16T08:19:50;11.88;;;8.80;;
24325;SDS011;12448;45.532;5.290;2022-09-16T08:22:16;10.40;;;7.85;;
24325;SDS011;12448;45.532;5.290;2022-09-16T08:24:41;10.68;;;7.60;;
24325;SDS011;12448;45.532;5.290;2022-09-16T08:27:39;12.25;;;7.88;;
24325;SDS011;12448;45.532;5.290;2022-09-16T08:30:11;15.07;;;8.02;;
24325;SDS011;12448;45.532;5.290;2022-09-16T08:32:37;9.18;;;7.25;;
24325;SDS011;12448;45.532;5.290;2022-09-16T08:35:02;16.23;;;7.75;;
24325;SDS011;12448;45.532;5.290;2022-09-16T08:37:28;9.60;;;6.60;;
24325;SDS011;12448;45.532;5.290;2022-09-16T08:39:54;11.50;;;7.13;;
24325;SDS011;12448;45.532;5.290;2022-09-16T08:42:27;7.63;;;6.40;;
24325;SDS011;12448;45.532;5.290;2022-09-16T08:50:52;11.30;;;7.00;;
24325;SDS011;12448;45.532;5.290;2022-09-16T08:53:31;9.40;;;7.50;;
24325;SDS011;12448;45.532;5.290;2022-09-16T08:56:03;9.52;;;6.30;;
24325;SDS011;12448;45.532;5.290;2022-09-16T08:58:37;10.18;;;7.25;;
24325;SDS011;12448;45.532;5.290;2022-09-16T09:10:53;8.93;;;5.72;;
24325;SDS011;12448;45.532;5.290;2022-09-16T09:41:50;8.43;;;5.03;;
24325;SDS011;12448;45.532;5.290;2022-09-16T09:47:38;9.40;;;5.88;;
24325;SDS011;12448;45.532;5.290;2022-09-16T09:50:29;11.52;;;5.88;;
24325;SDS011;12448;45.532;5.290;2022-09-16T09:53:11;9.20;;;5.90;;
24325;SDS011;12448;45.532;5.290;2022-09-16T09:55:43;7.25;;;5.18;;
24325;SDS011;12448;45.532;5.290;2022-09-16T09:58:18;9.63;;;5.35;;
24325;SDS011;12448;45.532;5.290;2022-09-16T10:00:53;8.75;;;5.65;;
24325;SDS011;12448;45.532;5.290;2022-09-16T10:03:22;8.38;;;5.80;;
24325;SDS011;12448;45.532;5.290;2022-09-16T10:05:49;10.30;;;6.07;;
24325;SDS011;12448;45.532;5.290;2022-09-16T10:10:54;10.65;;;5.30;;
24325;SDS011;12448;45.532;5.290;2022-09-16T10:13:22;8.30;;;5.40;;
24325;SDS011;12448;45.532;5.290;2022-09-16T10:15:49;8.15;;;5.20;;
24325;SDS011;12448;45.532;5.290;2022-09-16T10:18:25;9.05;;;4.90;;
24325;SDS011;12448;45.532;5.290;2022-09-16T10:23:34;9.25;;;5.70;;
24325;SDS011;12448;45.532;5.290;2022-09-16T10:26:18;10.70;;;6.15;;
24325;SDS011;12448;45.532;5.290;2022-09-16T10:28:52;11.57;;;6.43;;
24325;SDS011;12448;45.532;5.290;2022-09-16T10:31:47;10.00;;;5.90;;
24325;SDS011;12448;45.532;5.290;2022-09-16T10:39:52;6.72;;;4.90;;
24325;SDS011;12448;45.532;5.290;2022-09-16T10:42:21;9.48;;;5.20;;
24325;SDS011;12448;45.532;5.290;2022-09-16T10:44:49;8.55;;;5.63;;
24325;SDS011;12448;45.532;5.290;2022-09-16T10:47:19;8.35;;;4.93;;
24325;SDS011;12448;45.532;5.290;2022-09-16T10:49:49;8.20;;;5.00;;
24325;SDS011;12448;45.532;5.290;2022-09-16T10:52:20;7.03;;;4.50;;
24325;SDS011;12448;45.532;5.290;2022-09-16T10:54:47;6.22;;;4.38;;
24325;SDS011;12448;45.532;5.290;2022-09-16T10:57:18;7.72;;;5.68;;
24325;SDS011;12448;45.532;5.290;2022-09-16T11:09:14;9.05;;;4.43;;
24325;SDS011;12448;45.532;5.290;2022-09-16T11:11:49;8.95;;;3.42;;
24325;SDS011;12448;45.532;5.290;2022-09-16T11:19:56;8.52;;;4.15;;
24325;SDS011;12448;45.532;5.290;2022-09-16T11:22:39;6.45;;;3.88;;
24325;SDS011;12448;45.532;5.290;2022-09-16T11:27:58;6.63;;;4.18;;
24325;SDS011;12448;45.532;5.290;2022-09-16T11:30:53;8.70;;;3.67;;
24325;SDS011;12448;45.532;5.290;2022-09-16T11:33:42;7.50;;;3.30;;
24325;SDS011;12448;45.532;5.290;2022-09-16T11:45:25;6.68;;;3.42;;
24325;SDS011;12448;45.532;5.290;2022-09-16T11:51:10;7.68;;;3.55;;
24325;SDS011;12448;45.532;5.290;2022-09-16T11:56:56;6.80;;;4.05;;
24325;SDS011;12448;45.532;5.290;2022-09-16T11:59:36;7.57;;;4.03;;
24325;SDS011;12448;45.532;5.290;2022-09-16T12:14:59;7.80;;;5.30;;
24325;SDS011;12448;45.532;5.290;2022-09-16T12:17:50;9.07;;;4.53;;
24325;SDS011;12448;45.532;5.290;2022-09-16T12:24:28;13.80;;;5.97;;
24325;SDS011;12448;45.532;5.290;2022-09-16T12:27:25;8.63;;;5.78;;
24325;SDS011;12448;45.532;5.290;2022-09-16T12:38:58;6.57;;;5.13;;
24325;SDS011;12448;45.532;5.290;2022-09-16T12:41:50;10.65;;;5.75;;
24325;SDS011;12448;45.532;5.290;2022-09-16T12:45:07;9.13;;;5.20;;
24325;SDS011;12448;45.532;5.290;2022-09-16T13:02:20;8.95;;;4.93;;
24325;SDS011;12448;45.532;5.290;2022-09-16T13:05:01;9.10;;;4.57;;
24325;SDS011;12448;45.532;5.290;2022-09-16T13:07:38;8.00;;;4.80;;
24325;SDS011;12448;45.532;5.290;2022-09-16T13:13:05;9.52;;;5.22;;
24325;SDS011;12448;45.532;5.290;2022-09-16T13:15:36;11.10;;;5.57;;
24325;SDS011;12448;45.532;5.290;2022-09-16T13:18:22;12.38;;;4.95;;
24325;SDS011;12448;45.532;5.290;2022-09-16T13:23:23;7.95;;;5.05;;
24325;SDS011;12448;45.532;5.290;2022-09-16T13:26:05;8.25;;;4.78;;
24325;SDS011;12448;45.532;5.290;2022-09-16T13:31:27;7.60;;;4.28;;
24325;SDS011;12448;45.532;5.290;2022-09-16T13:38:53;7.45;;;4.68;;
24325;SDS011;12448;45.532;5.290;2022-09-16T13:52:36;5.82;;;4.35;;
24325;SDS011;12448;45.532;5.290;2022-09-16T13:58:13;11.68;;;4.70;;
24325;SDS011;12448;45.532;5.290;2022-09-16T14:08:55;8.48;;;4.45;;
24325;SDS011;12448;45.532;5.290;2022-09-16T14:14:38;7.80;;;4.35;;
24325;SDS011;12448;45.532;5.290;2022-09-16T14:21:34;7.78;;;4.28;;
24325;SDS011;12448;45.532;5.290;2022-09-16T14:24:24;7.50;;;3.97;;
24325;SDS011;12448;45.532;5.290;2022-09-16T14:31:05;5.97;;;3.72;;
24325;SDS011;12448;45.532;5.290;2022-09-16T14:34:27;7.13;;;4.00;;
24325;SDS011;12448;45.532;5.290;2022-09-16T14:37:24;7.63;;;4.05;;
24325;SDS011;12448;45.532;5.290;2022-09-16T14:39:55;8.15;;;4.03;;
24325;SDS011;12448;45.532;5.290;2022-09-16T14:43:03;6.90;;;4.10;;
24325;SDS011;12448;45.532;5.290;2022-09-16T14:45:31;9.75;;;4.65;;
24325;SDS011;12448;45.532;5.290;2022-09-16T14:47:59;9.30;;;4.30;;
24325;SDS011;12448;45.532;5.290;2022-09-16T14:50:31;9.55;;;4.25;;
24325;SDS011;12448;45.532;5.290;2022-09-16T15:00:32;7.75;;;4.40;;
24325;SDS011;12448;45.532;5.290;2022-09-16T15:04:01;9.82;;;4.30;;
24325;SDS011;12448;45.532;5.290;2022-09-16T15:06:16;11.02;;;4.22;;
24325;SDS011;12448;45.532;5.290;2022-09-16T15:12:26;9.43;;;4.15;;
24325;SDS011;12448;45.532;5.290;2022-09-16T15:24:45;6.10;;;4.55;;
24325;SDS011;12448;45.532;5.290;2022-09-16T15:27:24;9.80;;;4.40;;
24325;SDS011;12448;45.532;5.290;2022-09-16T15:29:54;6.05;;;3.55;;
24325;SDS011;12448;45.532;5.290;2022-09-16T15:32:25;6.30;;;4.22;;
24325;SDS011;12448;45.532;5.290;2022-09-16T15:35:02;5.10;;;4.07;;
24325;SDS011;12448;45.532;5.290;2022-09-16T15:37:35;8.00;;;3.95;;
24325;SDS011;12448;45.532;5.290;2022-09-16T15:43:38;5.15;;;3.78;;
24325;SDS011;12448;45.532;5.290;2022-09-16T15:46:22;7.93;;;3.97;;
24325;SDS011;12448;45.532;5.290;2022-09-16T15:49:00;7.28;;;4.00;;
24325;SDS011;12448;45.532;5.290;2022-09-16T15:51:31;7.97;;;3.72;;
24325;SDS011;12448;45.532;5.290;2022-09-16T15:54:49;6.45;;;3.20;;
24325;SDS011;12448;45.532;5.290;2022-09-16T15:57:03;8.70;;;3.40;;
24325;SDS011;12448;45.532;5.290;2022-09-16T16:00:03;9.48;;;3.58;;
24325;SDS011;12448;45.532;5.290;2022-09-16T16:02:52;5.78;;;3.40;;
24325;SDS011;12448;45.532;5.290;2022-09-16T16:05:32;5.70;;;3.42;;
24325;SDS011;12448;45.532;5.290;2022-09-16T16:07:59;5.22;;;3.22;;
24325;SDS011;12448;45.532;5.290;2022-09-16T16:10:32;4.15;;;2.92;;
24325;SDS011;12448;45.532;5.290;2022-09-16T16:13:04;6.43;;;3.20;;
24325;SDS011;12448;45.532;5.290;2022-09-16T16:15:36;5.40;;;2.70;;
24325;SDS011;12448;45.532;5.290;2022-09-16T16:18:06;6.97;;;3.10;;
24325;SDS011;12448;45.532;5.290;2022-09-16T16:20:35;8.38;;;3.10;;
24325;SDS011;12448;45.532;5.290;2022-09-16T16:23:02;8.68;;;2.90;;
24325;SDS011;12448;45.532;5.290;2022-09-16T16:25:28;7.00;;;2.92;;
24325;SDS011;12448;45.532;5.290;2022-09-16T16:28:24;6.75;;;2.85;;
24325;SDS011;12448;45.532;5.290;2022-09-16T16:31:13;5.35;;;2.85;;
24325;SDS011;12448;45.532;5.290;2022-09-16T16:34:06;6.40;;;3.08;;
24325;SDS011;12448;45.532;5.290;2022-09-16T16:36:39;4.85;;;2.90;;
24325;SDS011;12448;45.532;5.290;2022-09-16T16:39:16;4.22;;;2.88;;
24325;SDS011;12448;45.532;5.290;2022-09-16T16:42:03;5.53;;;3.00;;
24325;SDS011;12448;45.532;5.290;2022-09-16T16:44:52;4.93;;;2.80;;
24325;SDS011;12448;45.532;5.290;2022-09-16T16:47:19;4.07;;;2.80;;
24325;SDS011;12448;45.532;5.290;2022-09-16T16:49:51;5.27;;;3.30;;
24325;SDS011;12448;45.532;5.290;2022-09-16T16:52:17;7.28;;;3.08;;
24325;SDS011;12448;45.532;5.290;2022-09-16T16:54:42;4.53;;;2.83;;
24325;SDS011;12448;45.532;5.290;2022-09-16T16:57:09;8.02;;;2.78;;
24325;SDS011;12448;45.532;5.290;2022-09-16T16:59:35;6.68;;;3.25;;
24325;SDS011;12448;45.532;5.290;2022-09-16T17:02:05;6.55;;;3.30;;
24325;SDS011;12448;45.532;5.290;2022-09-16T17:04:54;7.00;;;3.30;;
24325;SDS011;12448;45.532;5.290;2022-09-16T17:07:29;10.60;;;3.75;;
24325;SDS011;12448;45.532;5.290;2022-09-16T17:09:55;12.65;;;3.45;;
24325;SDS011;12448;45.532;5.290;2022-09-16T17:16:04;7.53;;;3.47;;
24325;SDS011;12448;45.532;5.290;2022-09-16T17:18:35;6.55;;;3.40;;
24325;SDS011;12448;45.532;5.290;2022-09-16T17:21:05;8.27;;;3.25;;
24325;SDS011;12448;45.532;5.290;2022-09-16T17:23:33;4.95;;;3.50;;
24325;SDS011;12448;45.532;5.290;2022-09-16T17:26:05;4.50;;;3.30;;
24325;SDS011;12448;45.532;5.290;2022-09-16T17:31:46;7.50;;;3.47;;
24325;SDS011;12448;45.532;5.290;2022-09-16T17:34:15;9.85;;;4.38;;
24325;SDS011;12448;45.532;5.290;2022-09-16T17:36:42;5.15;;;3.30;;
24325;SDS011;12448;45.532;5.290;2022-09-16T17:39:11;8.85;;;3.40;;
24325;SDS011;12448;45.532;5.290;2022-09-16T17:41:40;6.63;;;3.10;;
24325;SDS011;12448;45.532;5.290;2022-09-16T17:44:26;4.55;;;2.88;;
24325;SDS011;12448;45.532;5.290;2022-09-16T17:46:53;5.22;;;3.10;;
24325;SDS011;12448;45.532;5.290;2022-09-16T17:49:43;8.23;;;3.50;;
24325;SDS011;12448;45.532;5.290;2022-09-16T17:52:09;7.53;;;3.30;;
24325;SDS011;12448;45.532;5.290;2022-09-16T17:54:35;5.07;;;3.53;;
24325;SDS011;12448;45.532;5.290;2022-09-16T17:57:00;4.65;;;3.28;;
24325;SDS011;12448;45.532;5.290;2022-09-16T17:59:26;6.90;;;3.63;;
24325;SDS011;12448;45.532;5.290;2022-09-16T18:01:51;5.55;;;3.10;;
24325;SDS011;12448;45.532;5.290;2022-09-16T18:04:17;6.75;;;3.70;;
24325;SDS011;12448;45.532;5.290;2022-09-16T18:06:44;8.07;;;3.95;;
24325;SDS011;12448;45.532;5.290;2022-09-16T18:09:10;7.47;;;3.95;;
24325;SDS011;12448;45.532;5.290;2022-09-16T18:11:37;5.95;;;3.67;;
24325;SDS011;12448;45.532;5.290;2022-09-16T18:14:04;6.15;;;3.35;;
24325;SDS011;12448;45.532;5.290;2022-09-16T18:17:09;6.03;;;3.70;;
24325;SDS011;12448;45.532;5.290;2022-09-16T18:19:35;9.50;;;3.90;;
24325;SDS011;12448;45.532;5.290;2022-09-16T18:22:02;8.23;;;3.78;;
24325;SDS011;12448;45.532;5.290;2022-09-16T18:24:31;7.50;;;4.43;;
24325;SDS011;12448;45.532;5.290;2022-09-16T18:26:57;6.35;;;3.85;;
24325;SDS011;12448;45.532;5.290;2022-09-16T18:29:23;5.32;;;3.85;;
24325;SDS011;12448;45.532;5.290;2022-09-16T18:31:48;6.10;;;3.75;;
24325;SDS011;12448;45.532;5.290;2022-09-16T18:34:17;5.70;;;4.20;;
24325;SDS011;12448;45.532;5.290;2022-09-16T18:36:42;8.82;;;3.80;;
24325;SDS011;12448;45.532;5.290;2022-09-16T18:39:12;11.73;;;4.35;;
24325;SDS011;12448;45.532;5.290;2022-09-16T18:41:40;6.53;;;3.90;;
24325;SDS011;12448;45.532;5.290;2022-09-16T18:44:10;6.68;;;3.97;;
24325;SDS011;12448;45.532;5.290;2022-09-16T18:46:37;5.68;;;4.03;;
24325;SDS011;12448;45.532;5.290;2022-09-16T18:49:04;8.70;;;4.40;;
24325;SDS011;12448;45.532;5.290;2022-09-16T18:51:31;8.77;;;4.18;;
24325;SDS011;12448;45.532;5.290;2022-09-16T18:54:53;8.85;;;4.95;;
24325;SDS011;12448;45.532;5.290;2022-09-16T18:56:57;7.63;;;4.20;;
24325;SDS011;12448;45.532;5.290;2022-09-16T18:59:28;7.35;;;4.53;;
24325;SDS011;12448;45.532;5.290;2022-09-16T19:01:56;8.07;;;4.45;;
24325;SDS011;12448;45.532;5.290;2022-09-16T19:04:26;6.40;;;3.67;;
24325;SDS011;12448;45.532;5.290;2022-09-16T19:06:54;6.25;;;3.88;;
24325;SDS011;12448;45.532;5.290;2022-09-16T19:09:29;6.18;;;4.00;;
24325;SDS011;12448;45.532;5.290;2022-09-16T19:11:56;8.82;;;4.57;;
24325;SDS011;12448;45.532;5.290;2022-09-16T19:14:24;5.13;;;3.97;;
24325;SDS011;12448;45.532;5.290;2022-09-16T19:16:51;5.88;;;3.85;;
24325;SDS011;12448;45.532;5.290;2022-09-16T19:19:17;9.27;;;4.25;;
24325;SDS011;12448;45.532;5.290;2022-09-16T19:21:44;8.20;;;3.60;;
24325;SDS011;12448;45.532;5.290;2022-09-16T19:24:14;9.48;;;4.65;;
24325;SDS011;12448;45.532;5.290;2022-09-16T19:26:45;8.87;;;5.10;;
24325;SDS011;12448;45.532;5.290;2022-09-16T19:29:12;6.30;;;4.32;;
24325;SDS011;12448;45.532;5.290;2022-09-16T19:31:40;9.18;;;4.40;;
24325;SDS011;12448;45.532;5.290;2022-09-16T19:34:07;6.93;;;4.40;;
24325;SDS011;12448;45.532;5.290;2022-09-16T19:36:33;8.70;;;4.68;;
24325;SDS011;12448;45.532;5.290;2022-09-16T19:39:00;9.77;;;4.97;;
24325;SDS011;12448;45.532;5.290;2022-09-16T19:41:28;8.73;;;4.88;;
24325;SDS011;12448;45.532;5.290;2022-09-16T19:43:55;8.00;;;5.25;;
24325;SDS011;12448;45.532;5.290;2022-09-16T19:46:23;7.22;;;5.30;;
24325;SDS011;12448;45.532;5.290;2022-09-16T19:48:49;6.85;;;5.15;;
24325;SDS011;12448;45.532;5.290;2022-09-16T19:51:16;8.15;;;5.15;;
24325;SDS011;12448;45.532;5.290;2022-09-16T19:53:45;7.88;;;5.25;;
24325;SDS011;12448;45.532;5.290;2022-09-16T19:56:17;6.20;;;5.10;;
24325;SDS011;12448;45.532;5.290;2022-09-16T19:58:45;5.93;;;5.10;;
24325;SDS011;12448;45.532;5.290;2022-09-16T20:01:13;8.88;;;4.78;;
24325;SDS011;12448;45.532;5.290;2022-09-16T20:03:44;8.13;;;5.15;;
24325;SDS011;12448;45.532;5.290;2022-09-16T20:06:14;8.13;;;5.38;;
24325;SDS011;12448;45.532;5.290;2022-09-16T20:08:42;10.30;;;5.20;;
24325;SDS011;12448;45.532;5.290;2022-09-16T20:11:10;9.68;;;4.80;;
24325;SDS011;12448;45.532;5.290;2022-09-16T20:13:38;7.10;;;4.32;;
24325;SDS011;12448;45.532;5.290;2022-09-16T20:16:06;10.68;;;4.80;;
24325;SDS011;12448;45.532;5.290;2022-09-16T20:18:34;5.13;;;4.20;;
24325;SDS011;12448;45.532;5.290;2022-09-16T20:21:08;12.60;;;4.35;;
24325;SDS011;12448;45.532;5.290;2022-09-16T20:23:35;5.82;;;4.18;;